createdAt,value
2018-06-27T00:01:30.026Z,45.12
2018-06-27T00:03:56.657Z,45.20
2018-06-27T00:06:23.394Z,45.23
2018-06-27T00:08:50.063Z,45.31
2018-06-27T00:11:16.670Z,45.33
2018-06-27T00:13:43.351Z,45.22
2018-06-27T00:16:10.037Z,45.30
2018-06-27T00:18:36.674Z,45.33
2018-06-27T00:21:03.319Z,45.33
2018-06-27T00:23:29.958Z,45.32
2018-06-27T00:25:56.674Z,45.37
2018-06-27T00:28:23.320Z,45.44
2018-06-27T00:30:49.961Z,45.38
2018-06-27T00:33:16.653Z,45.46
2018-06-27T00:35:43.286Z,45.50
2018-06-27T00:38:09.973Z,45.59
2018-06-27T00:40:36.660Z,45.42
2018-06-27T00:43:03.293Z,45.47
2018-06-27T00:45:29.938Z,45.47
2018-06-27T00:47:56.626Z,45.49
2018-06-27T00:50:23.294Z,45.54
2018-06-27T00:52:49.949Z,45.49
2018-06-27T00:55:16.588Z,45.59
2018-06-27T00:57:43.276Z,45.57
2018-06-27T01:00:09.917Z,45.54
2018-06-27T01:02:36.550Z,45.52
2018-06-27T01:05:03.193Z,45.59
2018-06-27T01:07:29.877Z,45.56
2018-06-27T01:09:56.517Z,45.69
2018-06-27T01:12:24.396Z,45.77
2018-06-27T01:14:49.796Z,45.75
2018-06-27T01:17:16.434Z,45.75
2018-06-27T01:19:43.077Z,45.74
2018-06-27T01:22:09.709Z,45.62
2018-06-27T01:24:36.350Z,45.78
2018-06-27T01:27:03.034Z,45.80
2018-06-27T01:29:29.664Z,45.81
2018-06-27T01:31:56.339Z,45.87
2018-06-27T01:34:22.941Z,45.86
2018-06-27T01:36:49.627Z,45.83
2018-06-27T01:39:16.305Z,45.84
2018-06-27T01:41:43.023Z,45.72
2018-06-27T01:44:09.657Z,45.76
2018-06-27T01:46:36.301Z,45.78
2018-06-27T01:49:02.933Z,45.76
2018-06-27T01:51:29.595Z,45.74
2018-06-27T01:53:56.271Z,45.91
2018-06-27T01:56:22.892Z,45.83
2018-06-27T01:58:49.530Z,45.83
2018-06-27T02:01:16.178Z,45.89
2018-06-27T02:03:42.836Z,45.91
2018-06-27T02:06:09.482Z,45.79
2018-06-27T02:08:36.124Z,45.89
2018-06-27T02:11:02.761Z,45.87
2018-06-27T02:13:29.489Z,45.94
2018-06-27T02:15:56.141Z,45.87
2018-06-27T02:18:22.773Z,45.99
2018-06-27T02:20:49.409Z,46.00
2018-06-27T02:23:16.062Z,45.98
2018-06-27T02:25:42.693Z,46.04
2018-06-27T02:28:09.335Z,45.98
2018-06-27T02:30:35.971Z,45.97
2018-06-27T02:33:02.660Z,45.96
2018-06-27T02:35:29.304Z,46.09
2018-06-27T02:37:56.022Z,46.07
2018-06-27T02:40:22.666Z,46.02
2018-06-27T02:42:49.353Z,46.05
2018-06-27T02:45:15.991Z,46.01
2018-06-27T02:47:42.637Z,46.08
2018-06-27T02:50:09.273Z,46.05
2018-06-27T02:52:35.922Z,46.05
2018-06-27T02:55:02.562Z,46.06
2018-06-27T02:57:30.605Z,46.14
2018-06-27T02:59:55.877Z,46.10
2018-06-27T03:02:22.542Z,46.09
2018-06-27T03:04:49.173Z,46.13
2018-06-27T03:07:15.819Z,46.17
2018-06-27T03:09:42.458Z,46.10
2018-06-27T03:12:09.103Z,46.12
2018-06-27T03:14:35.753Z,45.97
2018-06-27T03:17:02.456Z,46.08
2018-06-27T03:19:29.114Z,46.13
2018-06-27T03:21:55.718Z,46.16
2018-06-27T03:24:22.364Z,46.12
2018-06-27T03:26:49.022Z,46.09
2018-06-27T03:29:15.658Z,46.09
2018-06-27T03:31:42.346Z,46.02
2018-06-27T03:34:09.069Z,46.12
2018-06-27T03:36:35.711Z,45.98
2018-06-27T03:39:02.366Z,46.15
2018-06-27T03:41:28.993Z,46.30
2018-06-27T03:43:55.640Z,46.55
2018-06-27T03:46:22.270Z,46.63
2018-06-27T03:48:48.909Z,46.55
2018-06-27T03:51:15.565Z,46.61
2018-06-27T03:53:42.217Z,46.72
2018-06-27T03:56:08.857Z,46.96
2018-06-27T03:58:35.528Z,46.63
2018-06-27T04:01:02.168Z,46.73
2018-06-27T04:03:28.804Z,47.19
2018-06-27T04:05:55.449Z,47.02
2018-06-27T04:08:22.148Z,47.16
2018-06-27T04:10:48.785Z,47.31
2018-06-27T04:13:15.469Z,47.43
2018-06-27T04:15:42.100Z,46.78
2018-06-27T04:18:08.733Z,46.70
2018-06-27T04:20:35.368Z,47.03
2018-06-27T04:23:02.007Z,47.20
2018-06-27T04:25:28.693Z,46.60
2018-06-27T04:27:55.334Z,46.96
2018-06-27T04:30:21.970Z,47.15
2018-06-27T04:32:48.625Z,47.38
2018-06-27T04:35:15.260Z,47.47
2018-06-27T04:37:41.931Z,47.58
2018-06-27T04:40:08.588Z,47.43
2018-06-27T04:42:35.218Z,47.48
2018-06-27T04:45:01.851Z,47.50
2018-06-27T04:47:28.493Z,47.54
2018-06-27T04:49:55.136Z,47.34
2018-06-27T04:52:21.778Z,46.75
2018-06-27T04:54:48.463Z,46.87
2018-06-27T04:57:15.082Z,47.06
2018-06-27T04:59:41.732Z,47.34
2018-06-27T05:02:08.370Z,47.42
2018-06-27T05:04:35.106Z,47.43
2018-06-27T05:07:01.747Z,47.52
2018-06-27T05:09:28.385Z,47.46
2018-06-27T05:11:55.040Z,47.46
2018-06-27T05:14:21.686Z,47.47
2018-06-27T05:16:48.318Z,47.40
2018-06-27T05:19:15.006Z,47.25
2018-06-27T05:21:41.679Z,46.73
2018-06-27T05:24:08.310Z,46.76
2018-06-27T05:26:34.985Z,46.80
2018-06-27T05:29:01.712Z,47.13
2018-06-27T05:31:28.361Z,47.24
2018-06-27T05:33:55.089Z,47.16
2018-06-27T05:36:21.664Z,46.95
2018-06-27T05:38:48.314Z,47.16
2018-06-27T05:41:14.957Z,46.96
2018-06-27T05:43:41.602Z,46.92
2018-06-27T05:46:08.446Z,46.84
2018-06-27T05:48:35.090Z,46.67
2018-06-27T05:51:01.855Z,46.93
2018-06-27T05:53:28.475Z,46.97
2018-06-27T05:55:55.167Z,46.91
2018-06-27T05:58:21.918Z,47.12
2018-06-27T06:00:48.509Z,47.17
2018-06-27T06:03:15.149Z,47.10
2018-06-27T06:05:41.799Z,47.36
2018-06-27T06:08:08.434Z,47.42
2018-06-27T06:10:35.145Z,47.46
2018-06-27T06:13:01.777Z,47.50
2018-06-27T06:15:28.426Z,47.28
2018-06-27T06:17:55.076Z,47.00
2018-06-27T06:20:21.765Z,47.12
2018-06-27T06:22:48.369Z,47.24
2018-06-27T06:25:15.040Z,47.28
2018-06-27T06:27:41.664Z,47.30
2018-06-27T06:30:08.316Z,47.33
2018-06-27T06:32:35.055Z,47.39
2018-06-27T06:35:01.639Z,47.28
2018-06-27T06:37:28.340Z,47.31
2018-06-27T06:39:54.976Z,47.19
2018-06-27T06:42:21.705Z,47.17
2018-06-27T06:44:48.355Z,47.29
2018-06-27T06:47:15.069Z,47.21
2018-06-27T06:49:41.870Z,47.41
2018-06-27T06:52:08.499Z,47.29
2018-06-27T06:54:35.090Z,47.29
2018-06-27T06:57:01.841Z,47.28
2018-06-27T06:59:28.471Z,47.12
2018-06-27T07:01:55.123Z,47.12
2018-06-27T07:04:22.454Z,47.31
2018-06-27T07:06:50.171Z,47.21
2018-06-27T07:09:16.803Z,47.07
2018-06-27T07:11:43.458Z,46.93
2018-06-27T07:14:10.151Z,47.01
2018-06-27T07:16:36.835Z,47.05
2018-06-27T07:19:03.484Z,46.99
2018-06-27T07:21:30.186Z,46.83
2018-06-27T07:23:56.867Z,46.61
2018-06-27T07:26:23.514Z,47.05
2018-06-27T07:28:50.201Z,47.04
2018-06-27T07:31:16.842Z,46.74
2018-06-27T07:33:43.508Z,46.54
2018-06-27T07:36:10.191Z,46.47
2018-06-27T07:38:36.853Z,46.54
2018-06-27T08:01:29.739Z,47.04
2018-06-27T08:03:56.383Z,47.31
2018-06-27T08:06:23.141Z,47.23
2018-06-27T08:08:49.783Z,47.30
2018-06-27T08:11:16.484Z,47.25
2018-06-27T08:13:43.179Z,47.18
2018-06-27T08:16:09.842Z,46.68
2018-06-27T08:18:36.506Z,47.05
2018-06-27T08:21:03.289Z,46.99
2018-06-27T08:23:29.934Z,46.88
2018-06-27T08:25:56.659Z,46.66
2018-06-27T08:28:23.272Z,46.51
2018-06-27T08:30:49.948Z,46.20
2018-06-27T08:33:16.615Z,46.44
2018-06-27T08:35:43.252Z,46.72
2018-06-27T08:38:09.895Z,46.46
2018-06-27T08:40:36.533Z,46.18
2018-06-27T08:43:03.360Z,46.29
2018-06-27T08:45:30.018Z,46.19
2018-06-27T08:47:56.629Z,46.03
2018-06-27T08:50:26.252Z,46.13
2018-06-27T08:52:52.950Z,46.22
2018-06-27T08:55:19.680Z,46.14
2018-06-27T08:57:46.335Z,46.12
2018-06-27T09:00:12.990Z,46.04
2018-06-27T09:02:39.681Z,45.89
2018-06-27T09:05:06.337Z,45.60
2018-06-27T09:07:32.971Z,45.55
2018-06-27T09:09:59.705Z,45.70
2018-06-27T09:12:26.352Z,45.72
2018-06-27T09:14:53.035Z,45.74
2018-06-27T09:17:19.703Z,45.37
2018-06-27T09:19:46.356Z,45.52
2018-06-27T09:22:13.034Z,45.68
2018-06-27T09:24:39.690Z,45.40
2018-06-27T09:27:06.367Z,45.45
2018-06-27T09:29:32.971Z,45.47
2018-06-27T09:31:59.574Z,45.41
2018-06-27T09:34:26.253Z,45.42
2018-06-27T09:36:52.893Z,45.39
2018-06-27T09:39:22.380Z,45.27
2018-06-27T09:41:49.048Z,45.34
2018-06-27T09:44:15.709Z,45.21
2018-06-27T09:46:42.341Z,45.00
2018-06-27T09:49:09.032Z,45.10
2018-06-27T09:51:35.650Z,45.25
2018-06-27T09:54:02.329Z,45.11
2018-06-27T09:56:28.959Z,45.22
2018-06-27T09:58:55.624Z,45.13
2018-06-27T10:01:22.265Z,45.15
2018-06-27T10:03:48.945Z,45.17
2018-06-27T10:06:15.563Z,45.18
2018-06-27T10:08:42.245Z,44.96
2018-06-27T10:11:08.904Z,45.22
2018-06-27T10:13:35.541Z,45.33
2018-06-27T10:16:02.216Z,44.99
2018-06-27T10:18:28.907Z,45.13
2018-06-27T10:20:55.545Z,45.18
2018-06-27T10:23:22.166Z,45.17
2018-06-27T10:25:48.908Z,45.23
2018-06-27T10:28:15.514Z,45.43
2018-06-27T10:30:42.194Z,45.38
2018-06-27T10:33:08.849Z,45.53
2018-06-27T10:35:35.531Z,45.42
2018-06-27T10:38:02.181Z,45.60
2018-06-27T10:40:28.856Z,45.67
2018-06-27T10:42:55.464Z,45.73
2018-06-27T10:45:22.121Z,45.78
2018-06-27T10:47:48.771Z,45.72
2018-06-27T10:50:15.426Z,45.62
2018-06-27T10:52:42.090Z,45.48
2018-06-27T10:55:08.737Z,45.44
2018-06-27T10:57:35.383Z,45.61
2018-06-27T11:00:02.040Z,45.68
2018-06-27T11:02:28.700Z,45.51
2018-06-27T11:04:55.336Z,45.19
2018-06-27T11:07:21.987Z,45.40
2018-06-27T11:09:48.656Z,45.62
2018-06-27T11:12:15.303Z,45.88
2018-06-27T11:14:41.980Z,45.78
2018-06-27T11:17:08.698Z,45.85
2018-06-27T11:19:35.345Z,45.51
2018-06-27T11:22:02.155Z,45.69
2018-06-27T11:24:28.864Z,45.92
2018-06-27T11:26:55.590Z,46.07
2018-06-27T11:29:22.210Z,46.06
2018-06-27T11:31:48.892Z,46.30
2018-06-27T11:34:15.543Z,45.86
2018-06-27T11:36:42.190Z,46.09
2018-06-27T11:39:08.834Z,46.38
2018-06-27T11:41:35.628Z,46.45
2018-06-27T11:44:02.338Z,46.21
2018-06-27T11:46:29.276Z,46.05
2018-06-27T11:48:55.894Z,46.38
2018-06-27T11:51:22.564Z,46.43
2018-06-27T11:53:50.298Z,46.34
2018-06-27T11:56:17.920Z,46.68
2018-06-27T11:58:44.566Z,46.38
2018-06-27T12:01:11.215Z,46.29
2018-06-27T12:03:37.937Z,46.33
2018-06-27T12:06:04.772Z,46.64
2018-06-27T12:08:31.569Z,46.66
2018-06-27T12:10:58.154Z,46.72
2018-06-27T12:13:24.885Z,46.40
2018-06-27T12:15:51.559Z,46.64
2018-06-27T12:18:18.207Z,46.45
2018-06-27T12:20:44.905Z,46.71
2018-06-27T12:23:11.580Z,46.41
2018-06-27T12:25:38.242Z,46.80
2018-06-27T12:28:04.886Z,46.54
2018-06-27T12:30:31.570Z,46.65
2018-06-27T12:32:58.188Z,46.99
2018-06-27T12:35:24.824Z,47.14
2018-06-27T12:37:51.500Z,47.07
2018-06-27T12:40:18.162Z,47.05
2018-06-27T12:42:44.847Z,47.16
2018-06-27T12:45:11.580Z,47.28
2018-06-27T12:47:38.193Z,47.25
2018-06-27T12:50:04.939Z,47.09
2018-06-27T12:52:31.573Z,47.18
2018-06-27T12:54:58.185Z,47.28
2018-06-27T12:57:24.836Z,47.20
2018-06-27T12:59:51.493Z,46.88
2018-06-27T13:02:18.126Z,47.31
2018-06-27T13:04:44.818Z,47.32
2018-06-27T13:07:11.535Z,47.24
2018-06-27T13:09:38.165Z,47.30
2018-06-27T13:12:04.839Z,46.68
2018-06-27T13:14:31.442Z,46.91
2018-06-27T13:16:58.105Z,46.93
2018-06-27T13:19:24.752Z,47.34
2018-06-27T13:21:51.396Z,47.08
2018-06-27T13:24:18.033Z,47.19
2018-06-27T13:26:44.676Z,47.36
2018-06-27T13:29:11.370Z,47.12
2018-06-27T13:31:38.014Z,47.22
2018-06-27T13:34:04.660Z,47.16
2018-06-27T13:36:31.296Z,47.23
2018-06-27T13:38:57.955Z,47.43
2018-06-27T13:41:24.596Z,47.55
2018-06-27T13:43:51.258Z,47.60
2018-06-27T13:46:17.903Z,47.63
2018-06-27T13:48:47.844Z,47.88
2018-06-27T13:51:14.511Z,47.64
2018-06-27T13:53:41.180Z,47.88
2018-06-27T13:56:07.900Z,47.48
2018-06-27T13:58:34.503Z,47.92
2018-06-27T14:01:01.135Z,47.92
2018-06-27T14:03:27.839Z,47.99
2018-06-27T14:05:54.476Z,48.22
2018-06-27T14:08:21.119Z,48.22
2018-06-27T14:10:47.806Z,47.65
2018-06-27T14:13:14.479Z,47.99
2018-06-27T14:15:41.130Z,48.12
2018-06-27T14:18:07.772Z,48.20
2018-06-27T14:20:34.404Z,48.28
2018-06-27T14:23:01.130Z,48.28
2018-06-27T14:25:27.817Z,47.77
2018-06-27T14:27:54.455Z,47.72
2018-06-27T14:30:21.168Z,48.18
2018-06-27T14:32:47.845Z,48.15
2018-06-27T14:35:14.488Z,47.92
2018-06-27T14:37:41.151Z,48.10
2018-06-27T14:40:07.860Z,47.83
2018-06-27T14:42:34.463Z,47.97
2018-06-27T14:45:01.255Z,48.03
2018-06-27T14:47:27.942Z,47.72
2018-06-27T14:49:54.626Z,47.77
2018-06-27T14:52:21.295Z,47.86
2018-06-27T14:54:47.904Z,47.57
2018-06-27T14:57:14.576Z,48.07
2018-06-27T14:59:41.283Z,48.32
2018-06-27T15:02:07.905Z,48.27
2018-06-27T15:04:34.589Z,48.26
2018-06-27T15:07:01.228Z,48.36
2018-06-27T15:09:27.871Z,48.35
2018-06-27T15:11:54.548Z,48.31
2018-06-27T15:14:21.245Z,48.26
2018-06-27T15:16:47.989Z,47.93
2018-06-27T15:19:14.632Z,48.21
2018-06-27T15:21:41.275Z,48.25
2018-06-27T15:24:07.947Z,48.33
2018-06-27T15:26:34.672Z,48.32
2018-06-27T15:29:01.314Z,47.97
2018-06-27T15:31:27.962Z,47.65
2018-06-27T15:33:54.602Z,47.58
2018-06-27T15:36:21.246Z,47.60
2018-06-27T15:38:47.958Z,48.09
2018-06-27T15:41:14.613Z,48.21
2018-06-27T15:43:41.259Z,48.15
2018-06-27T15:46:07.913Z,47.77
2018-06-27T15:48:34.617Z,47.85
2018-06-27T15:51:01.301Z,47.87
2018-06-27T15:53:27.962Z,47.81
2018-06-27T15:55:54.599Z,48.01
2018-06-27T15:58:21.402Z,47.96
2018-06-27T16:00:48.039Z,47.73
2018-06-27T16:03:14.645Z,47.92
2018-06-27T16:05:41.353Z,47.94
2018-06-27T16:08:07.970Z,48.09
2018-06-27T16:10:34.658Z,48.07
2018-06-27T16:13:01.307Z,48.19
2018-06-27T16:15:27.959Z,48.08
2018-06-27T16:17:54.600Z,48.13
2018-06-27T16:20:21.281Z,48.03
2018-06-27T16:22:47.912Z,48.10
2018-06-27T16:25:14.598Z,48.05
2018-06-27T16:27:41.248Z,48.07
2018-06-27T16:30:07.893Z,48.05
2018-06-27T16:32:34.576Z,48.12
2018-06-27T16:35:01.246Z,48.24
2018-06-27T16:37:27.905Z,47.70
2018-06-27T16:39:54.533Z,47.70
2018-06-27T16:42:21.176Z,48.05
2018-06-27T16:44:47.906Z,48.05
2018-06-27T16:47:14.496Z,48.07
2018-06-27T16:49:41.143Z,48.09
2018-06-27T16:52:07.879Z,48.08
2018-06-27T16:54:34.487Z,48.11
2018-06-27T16:57:01.149Z,48.01
2018-06-27T16:59:27.760Z,48.00
2018-06-27T17:01:54.407Z,48.19
2018-06-27T17:04:21.052Z,47.94
2018-06-27T17:06:47.744Z,48.04
2018-06-27T17:09:14.375Z,47.56
2018-06-27T17:11:41.065Z,47.83
2018-06-27T17:14:07.715Z,48.06
2018-06-27T17:16:34.356Z,48.16
2018-06-27T17:19:00.997Z,48.08
2018-06-27T17:21:27.666Z,48.10
2018-06-27T17:23:54.305Z,47.89
2018-06-27T17:26:20.958Z,48.06
2018-06-27T17:28:47.631Z,48.08
2018-06-27T17:31:14.309Z,48.09
2018-06-27T17:33:40.987Z,48.22
2018-06-27T17:36:07.626Z,48.21
2018-06-27T17:38:34.267Z,48.12
2018-06-27T17:41:00.919Z,48.05
2018-06-27T17:43:27.603Z,48.18
2018-06-27T17:45:54.237Z,48.11
2018-06-27T17:48:20.920Z,48.04
2018-06-27T17:50:47.610Z,47.92
2018-06-27T17:53:14.247Z,48.11
2018-06-27T17:55:40.889Z,48.06
2018-06-27T17:58:07.554Z,48.00
2018-06-27T18:00:34.238Z,48.23
2018-06-27T18:03:00.891Z,47.98
2018-06-27T18:05:27.605Z,48.15
2018-06-27T18:07:54.216Z,48.04
2018-06-27T18:10:20.890Z,48.16
2018-06-27T18:12:47.586Z,48.28
2018-06-27T18:15:14.169Z,47.99
2018-06-27T18:17:40.811Z,48.21
2018-06-27T18:20:07.496Z,48.23
2018-06-27T18:22:34.297Z,47.99
2018-06-27T18:25:00.896Z,48.04
2018-06-27T18:27:27.582Z,47.94
2018-06-27T18:29:54.242Z,47.93
2018-06-27T18:32:20.922Z,48.05
2018-06-27T18:34:47.590Z,47.87
2018-06-27T18:37:14.225Z,47.88
2018-06-27T18:39:40.833Z,47.84
2018-06-27T18:42:07.469Z,47.94
2018-06-27T18:44:34.258Z,48.01
2018-06-27T18:47:00.893Z,48.10
2018-06-27T18:49:27.540Z,48.10
2018-06-27T18:51:54.194Z,48.22
2018-06-27T18:54:20.828Z,48.28
2018-06-27T18:56:47.515Z,48.06
2018-06-27T18:59:14.164Z,48.05
2018-06-27T19:01:40.803Z,48.14
2018-06-27T19:04:07.683Z,48.20
2018-06-27T19:06:34.321Z,48.19
2018-06-27T19:09:00.985Z,48.35
2018-06-27T19:11:27.601Z,48.20
2018-06-27T19:13:54.374Z,48.23
2018-06-27T19:16:21.050Z,48.38
2018-06-27T19:18:47.740Z,48.20
2018-06-27T19:21:14.371Z,48.34
2018-06-27T19:23:41.012Z,48.31
2018-06-27T19:26:07.698Z,48.39
2018-06-27T19:28:34.330Z,48.32
2018-06-27T19:31:00.970Z,48.27
2018-06-27T19:33:27.622Z,48.38
2018-06-27T19:35:54.336Z,48.35
2018-06-27T19:38:20.999Z,48.34
2018-06-27T19:40:47.640Z,48.43
2018-06-27T19:43:14.239Z,48.44
2018-06-27T19:45:40.934Z,48.54
2018-06-27T19:48:07.565Z,48.37
2018-06-27T19:50:34.258Z,48.46
2018-06-27T19:53:00.897Z,48.50
2018-06-27T19:55:27.590Z,48.50
2018-06-27T19:57:54.182Z,48.53
2018-06-27T20:00:20.856Z,48.57
2018-06-27T20:02:47.494Z,48.63
2018-06-27T20:05:14.178Z,48.62
2018-06-27T20:07:40.956Z,48.69
2018-06-27T20:10:07.464Z,48.63
2018-06-27T20:12:34.105Z,48.68
2018-06-27T20:15:00.822Z,48.75
2018-06-27T20:17:27.463Z,48.64
2018-06-27T20:19:54.098Z,48.78
2018-06-27T20:22:20.796Z,48.76
2018-06-27T20:24:47.417Z,48.76
2018-06-27T20:27:14.102Z,48.83
2018-06-27T20:29:40.742Z,48.81
2018-06-27T20:32:07.431Z,48.83
2018-06-27T20:34:34.061Z,48.85
2018-06-27T20:37:00.747Z,48.87
2018-06-27T20:39:27.382Z,48.83
2018-06-27T20:41:54.075Z,48.86
2018-06-27T20:44:20.747Z,48.91
2018-06-27T20:46:47.380Z,48.94
2018-06-27T20:49:14.003Z,49.03
2018-06-27T20:51:40.637Z,49.08
2018-06-27T20:54:07.326Z,49.09
2018-06-27T20:56:33.965Z,49.06
2018-06-27T20:59:00.653Z,49.00
2018-06-27T21:01:27.336Z,48.97
2018-06-27T21:03:53.971Z,49.07
2018-06-27T21:06:20.657Z,49.11
2018-06-27T21:08:47.292Z,49.05
2018-06-27T21:11:13.931Z,49.12
2018-06-27T21:13:40.588Z,49.17
2018-06-27T21:16:07.218Z,49.10
2018-06-27T21:18:33.899Z,49.16
2018-06-27T21:21:00.583Z,49.23
2018-06-27T21:23:27.227Z,49.40
2018-06-27T21:25:53.941Z,49.31
2018-06-27T21:28:20.551Z,49.17
2018-06-27T21:30:47.236Z,49.29
2018-06-27T21:33:13.915Z,49.24
2018-06-27T21:35:40.546Z,49.23
2018-06-27T21:38:07.225Z,49.33
2018-06-27T21:40:33.912Z,49.42
2018-06-27T21:43:00.548Z,49.39
2018-06-27T21:45:27.228Z,49.38
2018-06-27T21:47:53.904Z,49.30
2018-06-27T21:50:20.542Z,49.32
2018-06-27T21:52:47.232Z,49.38
2018-06-27T21:55:13.949Z,49.43
2018-06-27T21:57:40.555Z,49.40
2018-06-27T22:00:07.246Z,49.51
2018-06-27T22:02:33.920Z,49.45
2018-06-27T22:05:00.562Z,49.48
2018-06-27T22:07:27.198Z,49.52
2018-06-27T22:09:53.876Z,49.46
2018-06-27T22:12:20.565Z,49.48
2018-06-27T22:14:47.212Z,49.44
2018-06-27T22:17:13.937Z,49.59
2018-06-27T22:19:40.548Z,49.58
2018-06-27T22:22:07.187Z,49.64
2018-06-27T22:24:33.830Z,49.52
2018-06-27T22:27:00.498Z,49.64
2018-06-27T22:29:27.159Z,49.59
2018-06-27T22:31:53.795Z,49.67
2018-06-27T22:34:20.434Z,49.61
2018-06-27T22:36:47.081Z,49.56
2018-06-27T22:39:13.738Z,49.56
2018-06-27T22:41:40.431Z,49.68
2018-06-27T22:44:07.066Z,49.62
2018-06-27T22:46:33.704Z,49.65
2018-06-27T22:49:00.395Z,49.82
2018-06-27T22:51:26.989Z,49.67
2018-06-27T22:53:53.695Z,49.64
2018-06-27T22:56:20.345Z,49.75
2018-06-27T22:58:47.043Z,49.74
2018-06-27T23:01:13.681Z,49.80
2018-06-27T23:03:40.310Z,49.77
2018-06-27T23:06:06.968Z,49.76
2018-06-27T23:08:33.607Z,49.83
2018-06-27T23:11:00.250Z,49.78
2018-06-27T23:13:26.893Z,49.80
2018-06-27T23:15:53.560Z,49.77
2018-06-27T23:18:20.169Z,49.79
2018-06-27T23:20:46.805Z,49.80
2018-06-27T23:23:13.449Z,49.81
2018-06-27T23:25:40.130Z,49.78
2018-06-27T23:28:06.766Z,49.86
2018-06-27T23:30:33.411Z,49.85
2018-06-27T23:33:00.052Z,49.75
2018-06-27T23:35:26.704Z,49.83
2018-06-27T23:37:53.358Z,49.86
2018-06-27T23:40:20.069Z,49.75
2018-06-27T23:42:46.702Z,49.86
2018-06-27T23:45:13.401Z,50.04
2018-06-27T23:47:40.043Z,49.93
2018-06-27T23:50:06.682Z,49.87
2018-06-27T23:52:33.325Z,49.83
2018-06-27T23:54:59.967Z,49.92
2018-06-27T23:57:26.648Z,50.02
2018-06-27T23:59:53.256Z,49.92
